CST,Max TemperatureF,Mean TemperatureF,Min TemperatureF,Max Dew PointF,MeanDew PointF,Min DewpointF,Max Humidity, Mean Humidity, Min Humidity, Max Sea Level PressureIn, Mean Sea Level PressureIn, Min Sea Level PressureIn, Max VisibilityMiles, Mean VisibilityMiles, Min VisibilityMiles, Max Wind SpeedMPH, Mean Wind SpeedMPH, Max Gust SpeedMPH,PrecipitationIn, CloudCover, Events, WindDirDegrees
2012-11-1,73,57,41,48,44,41,100,69,38,30.12,30.04,29.99,10,9,2,10,2,13,0.00,0,,217
2012-11-2,83,67,50,60,54,46,89,65,40,30.02,29.99,29.96,10,10,10,13,6,16,0.00,0,,221
2012-11-3,83,69,55,65,60,55,93,68,43,30.10,30.05,29.99,10,8,2,18,9,24,0.00,0,,239
2012-11-4,63,53,43,57,47,42,100,74,48,30.21,30.15,30.08,10,10,7,15,8,20,0.02,2,Rain,19
2012-11-5,59,50,41,52,46,40,100,79,57,30.14,30.03,29.97,10,6,0,15,4,18,0.06,6,Fog-Rain,110
2012-11-6,61,52,43,47,45,42,100,79,57,30.12,30.06,30.01,10,8,0,15,6,21,0.00,4,Fog,332
2012-11-7,64,50,36,43,37,33,93,62,31,30.21,30.12,30.06,10,9,2,24,8,30,0.00,0,,339
2012-11-8,64,48,31,40,35,30,100,68,36,30.32,30.22,30.17,10,7,2,9,3,15,0.00,0,,150
2012-11-9,73,58,42,48,41,36,89,60,31,30.27,30.19,30.14,10,10,10,16,9,18,0.00,0,,165
2012-11-10,77,62,46,55,51,45,93,68,43,30.25,30.16,30.09,10,10,10,22,12,26,0.00,0,,162
2012-11-11,80,67,53,65,58,52,100,73,45,30.13,30.07,29.98,10,7,2,29,16,36,0.78,7,Rain,169
2012-11-12,54,44,34,52,42,31,93,69,44,30.50,30.35,30.11,10,10,4,22,11,26,0.06,5,Rain,359
2012-11-13,55,43,31,35,32,29,100,69,38,30.55,30.47,30.41,10,10,10,17,6,20,0.00,0,,20
2012-11-14,57,46,34,34,32,29,89,62,35,30.44,30.38,30.33,10,10,10,16,7,,0.00,0,,7
2012-11-15,59,45,31,41,36,31,96,72,47,30.39,30.34,30.30,10,10,6,13,6,17,0.00,0,,10
2012-11-16,61,47,33,38,35,31,96,64,32,30.42,30.38,30.34,10,9,6,15,8,18,0.00,0,,12
2012-11-17,64,49,33,38,35,31,89,60,31,30.46,30.40,30.36,10,10,7,10,5,13,0.00,0,,25
2012-11-18,67,50,33,39,36,32,96,63,29,30.41,30.36,30.31,10,9,4,9,3,12,0.00,0,,94
2012-11-19,69,53,36,45,40,34,92,62,32,30.35,30.28,30.22,10,10,10,6,1,10,0.00,1,,171
2012-11-20,72,62,51,49,46,43,83,61,38,30.24,30.19,30.13,10,9,4,9,4,13,T,4,Rain,234
2012-11-21,71,57,42,50,47,40,93,70,47,30.29,30.23,30.17,10,9,6,13,4,16,0.00,0,,359
2012-11-22,72,55,38,51,42,37,100,68,35,30.27,30.20,30.15,10,4,0,14,5,16,0.00,1,Fog,169
2012-11-23,64,54,43,57,43,29,93,64,34,30.37,30.26,30.18,10,10,6,24,9,29,0.03,4,Rain,336
2012-11-24,52,41,29,27,24,19,72,50,28,30.43,30.32,30.22,10,10,10,20,6,25,0.00,0,,360
2012-11-25,62,45,28,32,28,22,85,56,27,30.21,30.13,30.05,10,10,7,15,7,18,0.00,0,,176
2012-11-26,65,54,43,61,50,34,90,74,58,30.17,30.07,30.01,10,10,5,28,7,33,0.07,7,Rain-Thunderstorm,137
2012-11-27,51,41,30,43,36,29,89,73,56,30.41,30.31,30.16,10,10,10,26,13,33,T,4,,5
2012-11-28,58,42,26,36,28,23,100,63,25,30.54,30.44,30.40,10,8,2,8,2,12,0.00,0,,37
2012-11-29,62,45,28,36,31,24,92,61,30,30.41,30.34,30.27,10,10,9,13,5,15,0.00,0,,142
2012-11-30,67,52,36,51,43,35,92,74,56,30.31,30.25,30.19,10,10,7,12,6,13,0.00,0,,151